createdAt,value
2019-02-22T00:00:42.491Z,96.62
2019-02-22T00:05:38.389Z,96.68
2019-02-22T00:10:34.304Z,96.68
2019-02-22T00:15:32.160Z,96.70
2019-02-22T00:20:28.162Z,96.80
2019-02-22T00:25:24.103Z,96.95
2019-02-22T00:30:21.566Z,97.14
2019-02-22T00:35:17.741Z,97.22
2019-02-22T00:40:13.714Z,97.26
2019-02-22T00:45:09.604Z,97.31
2019-02-22T00:50:05.621Z,97.36
2019-02-22T00:55:01.523Z,97.24
2019-02-22T00:59:57.445Z,97.38
2019-02-22T01:04:53.389Z,97.41
2019-02-22T01:09:49.299Z,97.48
2019-02-22T01:14:46.470Z,97.60
2019-02-22T01:19:42.344Z,97.63
2019-02-22T01:24:38.391Z,97.61
2019-02-22T01:29:34.303Z,97.54
2019-02-22T01:34:30.215Z,97.61
2019-02-22T01:39:26.121Z,97.44
2019-02-22T01:44:22.181Z,97.39
2019-02-22T01:49:18.090Z,97.50
2019-02-22T01:54:13.999Z,97.78
2019-02-22T01:59:09.898Z,97.60
2019-02-22T02:04:05.923Z,97.30
2019-02-22T02:09:02.742Z,96.88
2019-02-22T02:13:58.738Z,96.86
2019-02-22T02:18:54.647Z,96.77
2019-02-22T02:23:50.566Z,96.80
2019-02-22T02:28:46.466Z,96.75
2019-02-22T02:33:42.374Z,96.27
2019-02-22T02:38:38.272Z,96.69
2019-02-22T02:43:34.175Z,96.81
2019-02-22T02:48:30.076Z,97.04
2019-02-22T02:53:25.988Z,97.37
2019-02-22T02:58:21.989Z,97.59
2019-02-22T03:03:17.927Z,97.69
2019-02-22T03:08:13.911Z,97.58
2019-02-22T03:13:09.814Z,97.36
2019-02-22T03:18:05.724Z,97.50
2019-02-22T03:23:01.621Z,97.67
2019-02-22T03:27:57.559Z,97.82
2019-02-22T03:32:54.516Z,97.88
2019-02-22T03:37:50.424Z,97.77
2019-02-22T03:42:46.327Z,97.71
2019-02-22T03:47:42.230Z,97.78
2019-02-22T03:52:43.286Z,97.86
2019-02-22T03:57:39.204Z,97.99
2019-02-22T04:02:35.192Z,98.07
2019-02-22T04:07:31.071Z,98.24
2019-02-22T04:12:26.971Z,98.20
2019-02-22T04:17:22.887Z,97.94
2019-02-22T04:22:19.013Z,97.86
2019-02-22T04:27:14.919Z,97.84
2019-02-22T04:32:10.902Z,97.92
2019-02-22T04:37:06.817Z,97.97
2019-02-22T04:42:02.729Z,97.82
2019-02-22T04:46:58.633Z,97.79
2019-02-22T04:51:54.561Z,97.78
2019-02-22T04:56:50.488Z,97.85
2019-02-22T05:01:46.405Z,97.76
2019-02-22T05:06:42.360Z,97.62
2019-02-22T05:11:38.278Z,97.23
2019-02-22T05:16:34.173Z,96.95
2019-02-22T05:21:30.177Z,96.75
2019-02-22T05:26:26.080Z,96.69
2019-02-22T05:31:22.087Z,96.37
2019-02-22T05:36:18.003Z,95.69
2019-02-22T05:41:13.922Z,95.47
2019-02-22T05:46:09.828Z,95.78
2019-02-22T05:51:05.732Z,95.44
2019-02-22T05:56:01.657Z,95.40
2019-02-22T06:00:57.645Z,95.11
2019-02-22T06:05:53.644Z,94.97
2019-02-22T06:10:49.534Z,95.44
2019-02-22T06:15:46.304Z,96.07
2019-02-22T06:20:42.194Z,96.35
2019-02-22T06:25:38.139Z,96.87
2019-02-22T06:30:34.032Z,96.34
2019-02-22T06:35:29.926Z,93.49
2019-02-22T06:40:25.825Z,93.40
2019-02-22T06:45:26.168Z,94.05
2019-02-22T06:50:33.154Z,94.54
2019-02-22T06:55:19.877Z,94.43
2019-02-22T07:00:15.770Z,94.44
2019-02-22T07:05:11.672Z,95.16
2019-02-22T07:10:09.174Z,94.16
2019-02-22T07:15:07.220Z,94.60
2019-02-22T07:20:06.604Z,94.38
2019-02-22T07:25:06.029Z,93.93
2019-02-22T07:30:02.813Z,94.83
2019-02-22T07:34:58.749Z,93.57
2019-02-22T07:39:54.647Z,92.78
2019-02-22T07:45:11.384Z,93.63
2019-02-22T07:50:08.786Z,92.95
2019-02-22T07:55:06.383Z,92.90
2019-02-22T08:00:05.882Z,92.46
2019-02-22T08:05:01.905Z,92.71
2019-02-22T08:09:57.802Z,92.31
2019-02-22T08:14:54.770Z,92.26
2019-02-22T08:19:50.793Z,92.02
2019-02-22T08:24:47.653Z,91.98
2019-02-22T08:29:43.594Z,92.54
2019-02-22T08:34:39.482Z,91.70
2019-02-22T08:39:35.368Z,91.58
2019-02-22T08:44:31.992Z,92.01
2019-02-22T08:49:27.902Z,91.45
2019-02-22T08:54:23.807Z,91.82
2019-02-22T08:59:19.700Z,91.69
2019-02-22T09:04:15.604Z,90.96
2019-02-22T09:09:11.501Z,91.12
2019-02-22T09:14:07.391Z,91.70
2019-02-22T09:19:03.403Z,92.43
2019-02-22T09:23:59.315Z,92.01
2019-02-22T09:28:55.660Z,91.87
2019-02-22T09:33:51.593Z,91.63
2019-02-22T09:38:51.520Z,91.28
2019-02-22T09:43:55.411Z,91.04
2019-02-22T09:48:50.637Z,91.69
2019-02-22T09:53:50.284Z,92.27
2019-02-22T09:58:47.633Z,92.29
2019-02-22T10:03:44.855Z,92.46
2019-02-22T10:08:40.767Z,91.93
2019-02-22T10:13:36.653Z,91.42
2019-02-22T10:18:32.544Z,90.91
2019-02-22T10:23:28.433Z,91.36
2019-02-22T10:28:24.347Z,90.14
2019-02-22T10:33:20.246Z,90.85
2019-02-22T10:38:16.129Z,90.83
2019-02-22T10:43:12.019Z,90.90
2019-02-22T10:48:07.913Z,91.57
2019-02-22T10:53:03.901Z,91.13
2019-02-22T10:57:59.781Z,91.78
2019-02-22T11:02:55.715Z,92.22
2019-02-22T11:07:51.568Z,92.25
2019-02-22T11:12:47.674Z,91.88
2019-02-22T11:17:43.574Z,92.50
2019-02-22T11:22:39.462Z,92.33
2019-02-22T11:27:35.383Z,91.73
2019-02-22T11:32:31.280Z,91.49
2019-02-22T11:37:27.179Z,91.58
2019-02-22T11:42:23.297Z,91.99
2019-02-22T11:47:20.518Z,92.47
2019-02-22T11:52:16.417Z,92.35
2019-02-22T11:57:14.636Z,91.88
2019-02-22T12:02:10.677Z,91.26
2019-02-22T12:07:06.569Z,91.14
2019-02-22T12:12:02.828Z,91.24
2019-02-22T12:16:58.725Z,91.11
2019-02-22T12:21:54.618Z,91.27
2019-02-22T12:26:53.280Z,90.77
2019-02-22T12:31:50.202Z,89.08
2019-02-22T12:36:46.102Z,89.17
2019-02-22T12:41:41.984Z,89.14
2019-02-22T12:46:38.029Z,87.65
2019-02-22T12:51:34.942Z,87.28
2019-02-22T12:56:55.920Z,84.78
2019-02-22T13:01:28.768Z,83.17
2019-02-22T13:06:26.286Z,83.25
2019-02-22T13:11:22.408Z,81.70
2019-02-22T13:16:18.410Z,82.24
2019-02-22T13:21:14.380Z,80.55
2019-02-22T13:26:10.316Z,82.72
2019-02-22T13:31:06.612Z,82.43
2019-02-22T13:36:02.627Z,81.40
2019-02-22T13:40:58.510Z,80.79
2019-02-22T13:45:54.847Z,81.34
2019-02-22T13:50:50.768Z,80.84
2019-02-22T13:55:46.631Z,81.53
2019-02-22T14:00:42.519Z,77.79
2019-02-22T14:05:38.426Z,78.17
2019-02-22T14:10:34.342Z,78.28
2019-02-22T14:15:38.100Z,78.77
2019-02-22T14:20:31.020Z,78.38
2019-02-22T14:25:26.916Z,78.00
2019-02-22T14:30:22.824Z,77.73
2019-02-22T14:35:18.797Z,77.25
2019-02-22T14:40:14.715Z,76.90
2019-02-22T14:45:13.107Z,77.59
2019-02-22T14:50:11.899Z,77.81
2019-02-22T14:55:08.325Z,77.93
2019-02-22T15:00:08.139Z,78.31
2019-02-22T15:05:08.969Z,79.13
2019-02-22T15:10:06.262Z,78.08
2019-02-22T15:15:04.884Z,78.00
2019-02-22T15:20:00.873Z,77.31
2019-02-22T15:24:56.804Z,77.67
2019-02-22T15:29:52.692Z,78.12
2019-02-22T15:34:48.696Z,77.52
2019-02-22T15:39:44.631Z,77.54
2019-02-22T15:44:43.982Z,78.91
2019-02-22T15:49:39.988Z,78.49
2019-02-22T15:54:35.880Z,78.93
2019-02-22T15:59:31.769Z,79.25
2019-02-22T16:04:29.556Z,79.95
2019-02-22T16:09:25.579Z,80.28
2019-02-22T16:14:21.459Z,80.51
2019-02-22T16:19:17.354Z,79.79
2019-02-22T16:24:15.607Z,80.02
2019-02-22T16:29:12.628Z,80.05
2019-02-22T16:34:08.629Z,80.40
2019-02-22T16:39:05.213Z,80.52
2019-02-22T16:44:01.760Z,80.59
2019-02-22T16:48:57.661Z,80.67
2019-02-22T16:53:53.570Z,80.90
2019-02-22T16:58:49.463Z,80.70
2019-02-22T17:03:45.415Z,81.54
2019-02-22T17:08:41.291Z,81.42
2019-02-22T17:13:38.014Z,81.40
2019-02-22T17:18:34.005Z,82.09
2019-02-22T17:23:29.894Z,82.03
2019-02-22T17:28:25.786Z,83.33
2019-02-22T17:33:21.679Z,82.20
2019-02-22T17:38:17.582Z,82.44
2019-02-22T17:43:13.475Z,82.55
2019-02-22T17:48:09.352Z,82.14
2019-02-22T17:53:05.237Z,83.21
2019-02-22T17:58:01.140Z,83.38
2019-02-22T18:02:57.031Z,83.57
2019-02-22T18:07:52.940Z,83.53
2019-02-22T18:12:48.832Z,84.12
2019-02-22T18:17:45.618Z,83.18
2019-02-22T18:22:42.224Z,82.34
2019-02-22T18:27:38.131Z,82.43
2019-02-22T18:32:34.020Z,82.41
2019-02-22T18:37:29.908Z,82.91
2019-02-22T18:42:25.815Z,82.94
2019-02-22T18:47:21.712Z,83.09
2019-02-22T18:52:17.594Z,83.61
2019-02-22T18:57:13.508Z,83.67
2019-02-22T19:02:09.394Z,84.05
2019-02-22T19:07:05.386Z,83.94
2019-02-22T19:12:01.275Z,84.28
2019-02-22T19:16:57.164Z,84.98
2019-02-22T19:21:53.055Z,84.98
2019-02-22T19:26:48.970Z,85.22
2019-02-22T19:31:44.859Z,85.73
2019-02-22T19:36:40.766Z,86.05
2019-02-22T19:41:36.672Z,86.63
2019-02-22T19:46:32.555Z,86.51
2019-02-22T19:51:28.863Z,86.27
2019-02-22T19:56:24.754Z,86.06
2019-02-22T20:01:20.726Z,86.02
2019-02-22T20:06:16.611Z,86.67
2019-02-22T20:11:12.503Z,86.29
2019-02-22T20:16:08.395Z,86.33
2019-02-22T20:21:04.293Z,86.93
2019-02-22T20:26:00.219Z,86.45
2019-02-22T20:30:56.132Z,85.88
2019-02-22T20:35:52.032Z,86.38
2019-02-22T20:40:47.930Z,86.12
2019-02-22T20:45:46.310Z,86.78
2019-02-22T20:50:42.299Z,88.03
2019-02-22T20:55:38.200Z,89.18
2019-02-22T21:00:34.204Z,88.71
2019-02-22T21:05:30.089Z,87.17
2019-02-22T21:10:25.976Z,87.90
2019-02-22T21:15:26.919Z,87.58
2019-02-22T21:20:22.784Z,88.57
2019-02-22T21:25:18.698Z,88.52
2019-02-22T21:30:19.211Z,88.23
2019-02-22T21:35:15.092Z,89.32
2019-02-22T21:40:12.428Z,88.42
2019-02-22T21:45:13.330Z,89.75
2019-02-22T21:50:15.288Z,89.60
2019-02-22T21:55:12.378Z,89.90
2019-02-22T22:00:22.784Z,88.19
2019-02-22T22:05:18.687Z,88.80
2019-02-22T22:10:14.636Z,89.79
2019-02-22T22:15:15.560Z,90.04
2019-02-22T22:20:11.802Z,90.39
2019-02-22T22:25:09.615Z,90.43
2019-02-22T22:30:09.411Z,90.03
2019-02-22T22:35:07.995Z,89.61
2019-02-22T22:40:04.679Z,89.67
2019-02-22T22:45:11.295Z,89.35
2019-02-22T22:50:35.765Z,88.86
2019-02-22T22:55:36.927Z,89.85
2019-02-22T23:00:50.911Z,89.81
2019-02-22T23:05:47.760Z,88.97
2019-02-22T23:10:44.647Z,90.20
2019-02-22T23:15:41.311Z,90.13
2019-02-22T23:20:37.214Z,89.99
2019-02-22T23:25:33.122Z,89.91
2019-02-22T23:30:29.018Z,89.27
2019-02-22T23:35:24.909Z,89.23
2019-02-22T23:40:20.812Z,89.08
2019-02-22T23:45:18.664Z,88.93
2019-02-22T23:50:14.711Z,88.95
2019-02-22T23:55:10.605Z,88.95
